createdAt,value
2022-10-05T00:01:46.968Z,14.67
2022-10-05T00:04:21.270Z,14.65
2022-10-05T00:06:56.990Z,14.64
2022-10-05T00:09:23.647Z,14.66
2022-10-05T00:11:51.596Z,14.67
2022-10-05T00:14:23.875Z,14.66
2022-10-05T00:16:50.922Z,14.66
2022-10-05T00:19:24.069Z,14.68
2022-10-05T00:21:50.810Z,14.68
2022-10-05T00:24:20.346Z,14.66
2022-10-05T00:26:47.436Z,14.65
2022-10-05T00:29:20.872Z,14.65
2022-10-05T00:31:48.206Z,14.66
2022-10-05T00:34:16.047Z,14.66
2022-10-05T00:36:44.040Z,14.66
2022-10-05T00:39:10.936Z,14.64
2022-10-05T00:42:03.817Z,14.63
2022-10-05T00:44:49.996Z,14.62
2022-10-05T00:47:36.496Z,14.63
2022-10-05T00:53:58.411Z,14.62
2022-10-05T00:56:44.137Z,14.63
2022-10-05T00:59:43.097Z,14.61
2022-10-05T01:02:17.791Z,14.60
2022-10-05T01:04:52.772Z,14.60
2022-10-05T01:07:31.688Z,14.61
2022-10-05T01:10:29.228Z,14.57
2022-10-05T01:13:07.168Z,14.53
2022-10-05T01:15:46.180Z,14.48
2022-10-05T01:18:25.813Z,14.47
2022-10-05T01:21:06.172Z,14.46
2022-10-05T01:23:51.587Z,14.46
2022-10-05T01:26:20.159Z,14.46
2022-10-05T01:28:50.110Z,14.45
2022-10-05T01:31:26.509Z,14.43
2022-10-05T01:34:13.523Z,14.41
2022-10-05T01:36:59.811Z,14.43
2022-10-05T01:39:41.333Z,14.43
2022-10-05T01:46:00.649Z,14.43
2022-10-05T01:49:07.281Z,14.40
2022-10-05T01:51:42.916Z,14.39
2022-10-05T01:55:00.556Z,14.37
2022-10-05T01:57:55.878Z,14.38
2022-10-05T02:00:22.499Z,14.36
2022-10-05T02:06:15.924Z,14.33
2022-10-05T02:08:58.886Z,14.32
2022-10-05T02:11:58.276Z,14.30
2022-10-05T02:14:43.929Z,14.29
2022-10-05T02:17:19.269Z,14.29
2022-10-05T02:19:52.525Z,14.31
2022-10-05T02:25:17.351Z,14.32
2022-10-05T02:27:52.358Z,14.32
2022-10-05T02:30:20.022Z,14.32
2022-10-05T02:32:54.857Z,14.32
2022-10-05T02:35:25.156Z,14.30
2022-10-05T02:41:36.377Z,14.30
2022-10-05T02:44:21.814Z,14.29
2022-10-05T02:50:32.926Z,14.27
2022-10-05T02:53:06.236Z,14.26
2022-10-05T02:55:46.856Z,14.28
2022-10-05T02:58:19.281Z,14.30
2022-10-05T03:00:50.771Z,14.28
2022-10-05T03:07:09.137Z,14.24
2022-10-05T03:10:00.944Z,14.23
2022-10-05T03:12:40.846Z,14.24
2022-10-05T03:15:47.930Z,14.23
2022-10-05T03:18:30.947Z,14.24
2022-10-05T03:21:28.310Z,14.24
2022-10-05T03:24:25.618Z,14.23
2022-10-05T03:26:57.570Z,14.24
2022-10-05T03:29:55.269Z,14.24
2022-10-05T03:32:34.626Z,14.25
2022-10-05T03:35:04.214Z,14.25
2022-10-05T03:38:10.680Z,14.27
2022-10-05T03:41:20.006Z,14.27
2022-10-05T03:47:01.974Z,14.30
2022-10-05T03:53:06.659Z,14.30
2022-10-05T03:55:57.659Z,14.31
2022-10-05T03:58:40.531Z,14.30
2022-10-05T04:01:13.647Z,14.29
2022-10-05T04:04:00.769Z,14.33
2022-10-05T04:09:20.909Z,14.32
2022-10-05T04:11:54.888Z,14.31
2022-10-05T04:15:18.817Z,14.31
2022-10-05T04:17:22.000Z,14.32
2022-10-05T04:20:04.472Z,14.32
2022-10-05T04:22:37.960Z,14.31
2022-10-05T04:25:18.404Z,14.31
2022-10-05T04:28:00.580Z,14.32
2022-10-05T04:30:59.279Z,14.33
2022-10-05T04:33:50.002Z,14.32
2022-10-05T04:36:27.938Z,14.31
2022-10-05T04:39:13.700Z,14.30
2022-10-05T04:42:11.673Z,14.31
2022-10-05T04:48:07.503Z,14.30
2022-10-05T04:51:13.652Z,14.31
2022-10-05T04:54:12.223Z,14.29
2022-10-05T04:56:54.506Z,14.28
2022-10-05T05:00:07.439Z,14.28
2022-10-05T05:03:22.749Z,14.29
2022-10-05T05:06:17.765Z,14.29
2022-10-05T05:08:53.469Z,14.28
2022-10-05T05:11:34.146Z,14.27
2022-10-05T05:14:09.170Z,14.28
2022-10-05T05:16:42.133Z,14.29
2022-10-05T05:19:27.494Z,14.29
2022-10-05T05:22:27.177Z,14.31
2022-10-05T05:25:04.578Z,14.30
2022-10-05T05:27:46.852Z,14.30
2022-10-05T05:30:23.055Z,14.32
2022-10-05T05:33:22.523Z,14.32
2022-10-05T05:36:10.225Z,14.32
2022-10-05T05:38:52.634Z,14.31
2022-10-05T05:41:56.026Z,14.31
2022-10-05T05:44:25.143Z,14.31
2022-10-05T05:47:04.038Z,14.28
2022-10-05T05:49:50.285Z,14.28
2022-10-05T05:52:24.285Z,14.27
2022-10-05T05:54:58.313Z,14.27
2022-10-05T05:57:38.452Z,14.27
2022-10-05T06:00:30.173Z,14.27
2022-10-05T06:03:23.243Z,14.25
2022-10-05T06:05:56.762Z,14.26
2022-10-05T06:08:43.507Z,14.25
2022-10-05T06:11:18.204Z,14.28
2022-10-05T06:13:45.114Z,14.28
2022-10-05T06:16:14.987Z,14.29
2022-10-05T06:18:46.763Z,14.28
2022-10-05T06:21:27.565Z,14.29
2022-10-05T06:24:04.364Z,14.30
2022-10-05T06:26:56.721Z,14.30
2022-10-05T06:29:28.787Z,14.31
2022-10-05T06:32:13.779Z,14.32
2022-10-05T06:34:56.520Z,14.36
2022-10-05T06:37:33.079Z,14.37
2022-10-05T06:40:28.135Z,14.39
2022-10-05T06:43:09.017Z,14.39
2022-10-05T06:45:53.240Z,14.42
2022-10-05T06:48:41.744Z,14.46
2022-10-05T06:51:23.354Z,14.47
2022-10-05T06:54:04.757Z,14.49
2022-10-05T06:56:49.528Z,14.49
2022-10-05T06:59:23.874Z,14.50
2022-10-05T07:02:10.241Z,14.51
2022-10-05T07:04:54.679Z,14.54
2022-10-05T07:07:46.630Z,14.54
2022-10-05T07:10:47.643Z,14.57
2022-10-05T07:13:36.667Z,14.60
2022-10-05T07:16:17.798Z,14.61
2022-10-05T07:18:57.403Z,14.63
2022-10-05T07:21:30.527Z,14.63
2022-10-05T07:24:13.058Z,14.63
2022-10-05T07:26:45.666Z,14.63
2022-10-05T07:29:25.210Z,14.63
2022-10-05T07:32:04.463Z,14.64
2022-10-05T07:34:47.761Z,14.66
2022-10-05T07:37:39.308Z,14.65
2022-10-05T07:40:15.188Z,14.66
2022-10-05T07:42:56.552Z,14.66
2022-10-05T07:45:29.790Z,14.66
2022-10-05T07:47:59.495Z,14.66
2022-10-05T07:50:30.101Z,14.67
2022-10-05T07:53:02.657Z,14.69
2022-10-05T07:55:37.116Z,14.70
2022-10-05T07:58:30.887Z,14.72
2022-10-05T08:01:07.689Z,14.71
2022-10-05T08:03:44.718Z,14.75
2022-10-05T08:06:27.948Z,14.75
2022-10-05T08:09:00.650Z,14.77
2022-10-05T08:11:33.170Z,14.79
2022-10-05T08:14:06.332Z,14.81
2022-10-05T08:16:37.974Z,14.82
2022-10-05T08:19:19.041Z,14.82
2022-10-05T08:21:51.969Z,14.82
2022-10-05T08:24:53.059Z,14.86
2022-10-05T08:28:09.245Z,14.88
2022-10-05T08:31:20.795Z,14.90
2022-10-05T08:33:55.455Z,14.91
2022-10-05T08:36:31.415Z,14.94
2022-10-05T08:39:03.978Z,14.96
2022-10-05T08:41:46.487Z,14.98
2022-10-05T08:44:57.705Z,14.98
2022-10-05T08:47:40.442Z,14.97
2022-10-05T08:50:15.961Z,14.98
2022-10-05T08:53:07.974Z,15.00
2022-10-05T08:55:36.445Z,15.03
2022-10-05T08:58:40.096Z,15.04
2022-10-05T09:01:21.175Z,15.09
2022-10-05T09:04:07.485Z,15.11
2022-10-05T09:06:53.639Z,15.15
2022-10-05T09:09:21.083Z,15.15
2022-10-05T09:12:01.172Z,15.18
2022-10-05T09:15:20.821Z,15.20
2022-10-05T09:18:33.482Z,15.23
2022-10-05T09:21:20.789Z,15.27
2022-10-05T09:23:57.544Z,15.30
2022-10-05T09:26:45.168Z,15.33
2022-10-05T09:29:29.304Z,15.36
2022-10-05T09:32:12.930Z,15.40
2022-10-05T09:34:47.736Z,15.44
2022-10-05T09:37:28.417Z,15.48
2022-10-05T09:40:08.469Z,15.51
2022-10-05T09:42:56.472Z,15.58
2022-10-05T09:45:40.772Z,15.62
2022-10-05T09:48:15.456Z,15.66
2022-10-05T09:51:00.228Z,15.72
2022-10-05T09:54:06.734Z,15.76
2022-10-05T09:56:51.850Z,15.79
2022-10-05T09:59:48.802Z,15.86
2022-10-05T10:02:20.767Z,15.92
2022-10-05T10:05:05.642Z,15.97
2022-10-05T10:07:51.633Z,16.01
2022-10-05T10:10:39.328Z,16.03
2022-10-05T10:13:28.500Z,16.06
2022-10-05T10:16:09.546Z,16.10
2022-10-05T10:18:52.601Z,16.11
2022-10-05T10:21:42.311Z,16.12
2022-10-05T10:24:42.671Z,16.16
2022-10-05T10:27:16.574Z,16.19
2022-10-05T10:29:43.040Z,16.21
2022-10-05T10:32:30.528Z,16.22
2022-10-05T10:35:22.354Z,16.24
2022-10-05T10:37:53.881Z,16.28
2022-10-05T10:40:46.641Z,16.28
2022-10-05T10:43:36.287Z,16.26
2022-10-05T10:46:53.038Z,16.25
2022-10-05T10:50:17.136Z,16.26
2022-10-05T10:53:37.692Z,16.25
2022-10-05T10:56:38.919Z,16.28
2022-10-05T10:59:35.362Z,16.30
2022-10-05T11:14:04.512Z,16.29
2022-10-05T11:17:03.219Z,16.31
2022-10-05T11:20:05.027Z,16.31
2022-10-05T11:22:53.460Z,16.31
2022-10-05T11:25:48.883Z,16.33
2022-10-05T11:28:33.569Z,16.40
2022-10-05T11:31:25.272Z,16.44
2022-10-05T11:33:56.830Z,16.48
2022-10-05T11:36:49.296Z,16.51
2022-10-05T11:39:29.817Z,16.53
2022-10-05T11:42:42.076Z,16.52
2022-10-05T11:45:21.557Z,16.54
2022-10-05T11:48:07.413Z,16.54
2022-10-05T11:50:52.737Z,16.55
2022-10-05T11:53:29.539Z,16.59
2022-10-05T11:56:09.485Z,16.62
2022-10-05T11:58:54.282Z,16.66
2022-10-05T12:01:34.787Z,16.68
2022-10-05T12:04:20.623Z,16.70
2022-10-05T12:06:56.159Z,16.75
2022-10-05T12:09:28.807Z,16.77
2022-10-05T12:12:04.035Z,16.82
2022-10-05T12:14:39.634Z,16.86
2022-10-05T12:17:23.809Z,16.91
2022-10-05T12:19:57.979Z,16.96
2022-10-05T12:22:34.543Z,16.96
2022-10-05T12:25:26.624Z,16.98
2022-10-05T12:27:58.536Z,17.02
2022-10-05T12:30:33.597Z,17.08
2022-10-05T12:33:02.380Z,17.11
2022-10-05T12:35:48.325Z,17.14
2022-10-05T12:38:25.544Z,17.17
2022-10-05T12:41:14.411Z,17.20
2022-10-05T12:44:08.033Z,17.25
2022-10-05T12:46:46.784Z,17.29
2022-10-05T12:49:28.533Z,17.31
2022-10-05T12:51:59.197Z,17.30
2022-10-05T12:54:41.751Z,17.34
2022-10-05T12:57:15.244Z,17.35
2022-10-05T12:59:52.058Z,17.34
2022-10-05T13:02:30.301Z,17.35
2022-10-05T13:05:09.133Z,17.31
2022-10-05T13:07:51.143Z,17.29
2022-10-05T13:10:19.711Z,17.27
2022-10-05T13:13:34.261Z,17.27
2022-10-05T13:16:17.108Z,17.28
2022-10-05T13:19:21.556Z,17.30
2022-10-05T13:22:03.673Z,17.29
2022-10-05T13:24:37.906Z,17.30
2022-10-05T13:27:13.764Z,17.31
2022-10-05T13:29:50.981Z,17.31
2022-10-05T13:32:25.803Z,17.32
2022-10-05T13:35:11.782Z,17.31
2022-10-05T13:37:50.475Z,17.32
2022-10-05T13:40:37.362Z,17.31
2022-10-05T13:43:28.260Z,17.33
2022-10-05T13:46:05.396Z,17.34
2022-10-05T13:48:36.034Z,17.37
2022-10-05T13:51:13.105Z,17.39
2022-10-05T13:54:11.622Z,17.43
2022-10-05T13:56:44.982Z,17.48
2022-10-05T13:59:12.467Z,17.53
2022-10-05T14:01:44.344Z,17.54
2022-10-05T14:04:21.088Z,17.57
2022-10-05T14:06:49.095Z,17.58
2022-10-05T14:09:19.650Z,17.59
2022-10-05T14:11:50.994Z,17.60
2022-10-05T14:14:45.175Z,17.62
2022-10-05T14:17:32.998Z,17.67
2022-10-05T14:20:03.049Z,17.70
2022-10-05T14:22:29.663Z,17.75
2022-10-05T14:25:16.268Z,17.76
2022-10-05T14:27:53.085Z,17.71
2022-10-05T14:30:23.830Z,17.73
2022-10-05T14:32:55.950Z,17.72
2022-10-05T14:35:25.782Z,17.67
2022-10-05T14:38:16.457Z,17.63
2022-10-05T14:40:44.135Z,17.59
2022-10-05T14:43:14.716Z,17.54
2022-10-05T14:46:03.443Z,17.53
2022-10-05T14:48:42.395Z,17.49
2022-10-05T14:51:13.131Z,17.46
2022-10-05T14:53:44.395Z,17.45
2022-10-05T14:56:41.342Z,17.41
2022-10-05T14:59:29.358Z,17.39
2022-10-05T15:02:45.175Z,17.38
2022-10-05T15:11:08.951Z,17.35
2022-10-05T15:13:41.642Z,17.34
2022-10-05T15:16:18.152Z,17.31
2022-10-05T15:18:49.338Z,17.29
2022-10-05T15:21:24.007Z,17.26
2022-10-05T15:23:57.484Z,17.24
2022-10-05T15:26:36.225Z,17.19
2022-10-05T15:29:17.993Z,17.19
2022-10-05T15:31:55.439Z,17.15
2022-10-05T15:34:41.742Z,17.12
2022-10-05T15:37:16.146Z,17.06
2022-10-05T15:39:58.293Z,17.02
2022-10-05T15:42:38.233Z,17.00
2022-10-05T15:45:28.483Z,16.98
2022-10-05T15:48:07.949Z,16.98
2022-10-05T15:50:47.989Z,16.98
2022-10-05T15:53:22.177Z,16.96
2022-10-05T15:56:02.165Z,16.97
2022-10-05T15:58:40.864Z,16.94
2022-10-05T16:01:12.933Z,16.93
2022-10-05T16:03:45.787Z,16.92
2022-10-05T16:06:38.272Z,16.91
2022-10-05T16:09:33.558Z,16.92
2022-10-05T16:12:14.176Z,16.90
2022-10-05T16:15:01.761Z,16.88
2022-10-05T16:17:30.232Z,16.86
2022-10-05T16:20:25.213Z,16.84
2022-10-05T16:22:59.558Z,16.81
2022-10-05T16:25:49.220Z,16.78
2022-10-05T16:28:39.799Z,16.76
2022-10-05T16:31:22.239Z,16.74
2022-10-05T16:34:09.408Z,16.72
2022-10-05T16:36:58.500Z,16.70
2022-10-05T16:39:38.104Z,16.66
2022-10-05T16:42:17.175Z,16.64
2022-10-05T16:44:57.142Z,16.61
2022-10-05T16:47:45.118Z,16.59
2022-10-05T16:50:17.581Z,16.57
2022-10-05T16:52:49.109Z,16.55
2022-10-05T16:55:32.139Z,16.54
2022-10-05T16:58:04.286Z,16.50
2022-10-05T17:00:51.970Z,16.47
2022-10-05T17:03:24.674Z,16.44
2022-10-05T17:06:18.446Z,16.47
2022-10-05T17:09:02.160Z,16.46
2022-10-05T17:11:39.154Z,16.46
2022-10-05T17:14:23.163Z,16.45
2022-10-05T17:17:16.048Z,16.43
2022-10-05T17:19:48.021Z,16.41
2022-10-05T17:22:54.354Z,16.40
2022-10-05T17:25:32.179Z,16.41
2022-10-05T17:28:24.517Z,16.39
2022-10-05T17:31:19.110Z,16.40
2022-10-05T17:33:58.916Z,16.39
2022-10-05T17:36:42.966Z,16.37
2022-10-05T17:39:15.392Z,16.38
2022-10-05T17:41:42.986Z,16.38
2022-10-05T17:44:13.597Z,16.36
2022-10-05T17:46:46.019Z,16.37
2022-10-05T17:49:38.967Z,16.36
2022-10-05T17:52:39.071Z,16.36
2022-10-05T17:55:34.149Z,16.33
2022-10-05T17:58:27.700Z,16.35
2022-10-05T18:01:13.629Z,16.34
2022-10-05T18:03:43.660Z,16.33
2022-10-05T18:06:28.431Z,16.32
2022-10-05T18:09:21.910Z,16.33
2022-10-05T18:12:11.661Z,16.33
2022-10-05T18:14:55.552Z,16.34
2022-10-05T18:17:45.161Z,16.34
2022-10-05T18:20:27.046Z,16.34
2022-10-05T18:23:01.593Z,16.33
2022-10-05T18:25:41.731Z,16.32
2022-10-05T18:28:26.931Z,16.33
2022-10-05T18:31:11.043Z,16.34
2022-10-05T18:33:53.466Z,16.33
2022-10-05T18:36:33.096Z,16.32
2022-10-05T18:39:18.767Z,16.35
2022-10-05T18:41:57.924Z,16.34
2022-10-05T18:44:36.394Z,16.34
2022-10-05T18:47:03.860Z,16.34
2022-10-05T18:49:58.444Z,16.34
2022-10-05T18:52:26.340Z,16.36
2022-10-05T18:55:11.156Z,16.35
2022-10-05T18:57:55.948Z,16.35
2022-10-05T19:00:24.826Z,16.35
2022-10-05T19:02:58.797Z,16.36
2022-10-05T19:05:57.549Z,16.36
2022-10-05T19:08:46.637Z,16.38
2022-10-05T19:11:30.672Z,16.42
2022-10-05T19:14:15.960Z,16.46
2022-10-05T19:20:38.507Z,16.49
2022-10-05T19:23:17.416Z,16.48
2022-10-05T19:26:14.975Z,16.47
2022-10-05T19:28:56.137Z,16.49
2022-10-05T19:31:53.892Z,16.48
2022-10-05T19:34:54.657Z,16.49
2022-10-05T19:37:35.441Z,16.51
2022-10-05T19:40:21.896Z,16.49
2022-10-05T19:43:26.253Z,16.53
2022-10-05T19:49:10.622Z,16.13
2022-10-05T19:51:49.904Z,15.77
2022-10-05T19:54:25.306Z,15.46
2022-10-05T19:56:54.297Z,15.24
2022-10-05T19:59:25.356Z,15.06
2022-10-05T20:01:54.784Z,14.90
2022-10-05T20:04:41.931Z,14.77
2022-10-05T20:07:38.944Z,14.68
2022-10-05T20:11:10.955Z,14.59
2022-10-05T20:14:19.443Z,14.49
2022-10-05T20:17:52.135Z,14.44
2022-10-05T20:20:48.478Z,14.39
2022-10-05T20:24:38.661Z,14.38
2022-10-05T20:30:44.624Z,14.30
2022-10-05T20:52:51.373Z,14.28
2022-10-05T20:58:50.955Z,14.29
2022-10-05T21:01:34.437Z,14.30
2022-10-05T21:04:04.150Z,14.30
2022-10-05T21:06:35.461Z,14.28
2022-10-05T21:09:31.158Z,14.26
2022-10-05T21:25:02.584Z,13.94
2022-10-05T21:27:41.206Z,13.88
2022-10-05T21:35:47.817Z,13.82
2022-10-05T21:38:14.564Z,13.82
2022-10-05T21:40:43.429Z,13.82
2022-10-05T21:43:12.693Z,13.81
2022-10-05T21:45:44.278Z,13.83
2022-10-05T21:48:13.254Z,13.80
2022-10-05T21:50:40.407Z,13.79
2022-10-05T21:53:11.569Z,13.74
2022-10-05T21:55:41.444Z,13.71
2022-10-05T21:58:08.638Z,13.67
2022-10-05T22:00:37.793Z,13.67
2022-10-05T22:05:50.738Z,13.65
2022-10-05T22:08:24.645Z,13.64
2022-10-05T22:11:07.830Z,13.63
2022-10-05T22:14:02.793Z,13.59
2022-10-05T22:16:33.780Z,13.56
2022-10-05T22:19:05.993Z,13.52
2022-10-05T22:21:51.736Z,13.48
2022-10-05T22:24:21.483Z,13.42
2022-10-05T22:26:51.560Z,13.40
2022-10-05T22:29:18.830Z,13.37
2022-10-05T22:31:48.765Z,13.35
2022-10-05T22:34:16.816Z,13.34
2022-10-05T22:36:49.369Z,13.34
2022-10-05T22:39:17.207Z,13.31
2022-10-05T22:41:47.393Z,13.31
2022-10-05T22:44:13.970Z,13.29
2022-10-05T22:46:40.718Z,13.27
2022-10-05T22:49:07.342Z,13.26
2022-10-05T22:51:34.271Z,13.27
2022-10-05T22:54:02.149Z,13.27
2022-10-05T22:59:26.464Z,13.27
2022-10-05T23:01:55.914Z,13.23
2022-10-05T23:04:22.624Z,13.22
2022-10-05T23:06:49.278Z,13.23
2022-10-05T23:09:18.873Z,13.24
2022-10-05T23:11:46.667Z,13.24
2022-10-05T23:14:16.835Z,13.21
2022-10-05T23:16:43.541Z,13.19
2022-10-05T23:19:10.640Z,13.19
2022-10-05T23:21:37.218Z,13.18
2022-10-05T23:24:04.586Z,13.16
2022-10-05T23:26:32.655Z,13.13
2022-10-05T23:28:59.179Z,13.14
2022-10-05T23:31:30.277Z,13.13
2022-10-05T23:33:56.910Z,13.14
2022-10-05T23:36:47.649Z,13.12
2022-10-05T23:39:47.354Z,13.06
2022-10-05T23:42:14.571Z,13.06
2022-10-05T23:44:41.059Z,13.05
2022-10-05T23:47:07.675Z,13.04
2022-10-05T23:49:56.952Z,13.03
2022-10-05T23:52:26.423Z,13.03
2022-10-05T23:55:28.860Z,13.02
2022-10-05T23:57:55.619Z,13.02
